Thunder radar more information blitzortung!


Rain radar more information rain snow radar


altri nostri siti meteo:

PomeziameteoStazione ufficiale di Pomezia

MeteopomeziaSito sulle condizioni meteo



Nessuna attenzione particolare richiesta.    Non ci sono allerte meteo

Report METAR

   
LIMP - Parma
Dati ricevuti: 17-01-2019 15:50
Nebbia, Molto nuvoloso  
Nebbia, Molto nuvoloso  
   Vento: Variabile 1.9 km/h
Vento: Variabile 1.9 km/h
Temperatura: 5°C
P.to Rugiada: 4°C
Umidita: 93%
Barometro: 1012 hPa
Nuvole: Molto nuvoloso
Visibilita: 3 km
dettagli cloud: Molto nuvoloso 4000 ft
LIMP 171450Z VRB01KT 2500 BR BKN040 05/04 Q1012
LIPE - Bologna
Dati ricevuti: 17-01-2019 16:20
Sereno  
Sereno  
   Vento: NNW 7.4 km/h
Vento: NNW 7.4 km/h
Temperatura: 11°C
P.to Rugiada: 6°C
Umidita: 72%
Barometro: 1011 hPa
Visibilita: oltre 10 km
dettagli cloud: Sereno
LIPE 171520Z 33004KT 290V010 CAVOK 11/06 Q1011
LIPO - Brescia/Montichi
Dati ricevuti: 17-01-2019 15:50
Nebbia, Parzialmente nuvoloso  
Nebbia, Parzialmente nuvoloso  
   Vento: NE 7.4 km/h
Vento: NE 7.4 km/h
Temperatura: 7°C
Temperatura Vento: 6°C
P.to Rugiada: 6°C
Umidita: 93%
Barometro: 1012 hPa
Nuvole: Parzialmente nuvoloso
Visibilita: 2 km
dettagli cloud: Parzialmente nuvoloso 2000 ft
LIPO 171450Z 06004KT 2000 BR SCT020 07/06 Q1012
LIPF - Ferrara
Dati ricevuti: 17-01-2019 15:55
Molto nuvoloso  
Molto nuvoloso  
   Vento: Variabile calma
Vento: Variabile calma
Temperatura: 12°C
P.to Rugiada: 8°C
Umidita: 77%
Barometro: 1012 hPa
Nuvole: Molto nuvoloso
Visibilita: oltre 10 km
dettagli cloud: Molto nuvoloso 5000 ft
LIPF 171455Z /////KT 9999 BKN050 12/08 Q1012
LIPL - Ghedi
Dati ricevuti: 17-01-2019 15:55
Deboli piogge, Nebbia, Parzialmente nuvoloso  
Deboli piogge, Nebbia, Parzialmente nuvoloso  
   Vento: Oriente 7.4 km/h
Vento: Oriente 7.4 km/h
Temperatura: 6°C
Temperatura Vento: 4°C
P.to Rugiada: 6°C
Umidita: 100%
Barometro: 1012 hPa
Nuvole: Parzialmente nuvoloso
Visibilita: 3 km
dettagli cloud: Parzialmente nuvoloso 2500 ft,
Parzialmente nuvoloso 3500 ft
LIPL 171455Z 08004KT 2500 -DZ BR SCT025 SCT035 06/06 Q1012 RMK OVC VIS MIN 2500 WIND THR31 06003KT WIND THR13 09003KT YLO
LIVC - Monte Cimone
Dati ricevuti: 17-01-2019 15:55
Freezing, Nebbia  
Freezing, Nebbia  
   Vento: SW 13 km/h<br />Gust to 13 km/h
Vento: SW 13 km/h
Gust to 13 km/h
Temperatura: -1°C
Temperatura Vento: -5°C
P.to Rugiada: -3°C
Umidita: 86%
Barometro: 1008 hPa
Visibilita: 0 km
dettagli cloud: Coperto
LIVC 171455Z 23007G21KT 0000 FZFG VV/// M01/M03 Q1008 RMK MON INVIS VAL INVIS VIS MIN 0000
LIMS - Piacenza
Dati ricevuti: 17-01-2019 15:55
Nebbia, Molto nuvoloso  
Nebbia, Molto nuvoloso  
   Vento: calma
Vento: calma
Temperatura: 5°C
P.to Rugiada: 5°C
Umidita: 100%
Barometro: 1011 hPa
Nuvole: Molto nuvoloso
Visibilita: 2 km
dettagli cloud: Molto nuvoloso 500 ft,
Parzialmente nuvoloso 1500 ft
LIMS 171455Z 00000KT 1500 BR BKN005 SCT015 05/05 Q1011
LIMT - Passo della Cisa
Dati ricevuti: 13-04-2018 12:55
DATI Obsoleti
Nebbia  
Nebbia  
   Vento: S 14.8 km/h
Vento: S 14.8 km/h
Temperatura: 6°C
Temperatura Vento: 3°C
P.to Rugiada: 4°C
Umidita: 87%
Barometro: 1013 hPa
Visibilita: 0 km
dettagli cloud: Coperto
LIMT 131055Z 20008KT 0000 FG VV/// 06/04 Q1013 RMK MON INVIS VAL INVIS VIS MIN 0000
LIPU - Padova
Dati ricevuti: 17-01-2019 08:05
DATI Obsoleti
Nebbia, Molto nuvoloso  
Nebbia, Molto nuvoloso  
   Vento: Variabile 3.7 km/h
Vento: Variabile 3.7 km/h
Temperatura: 3°C
P.to Rugiada: 0°C
Umidita: 81%
Barometro: 1015 hPa
Nuvole: Molto nuvoloso
Visibilita: 5 km
dettagli cloud: Molto nuvoloso 4900 ft
LIPU 170705Z VRB02KT 5000 BR BKN049 03/00 Q1015

Script sviluppato da  Saratoga-weather.org Adattato per il modello da  Weerstation Leuven

Strumentazione usata:

Stazione meteo
Davis VP2

Programma gestore dati meteo
WVIEW

Server per i dati meteo
Pc-WDS5

Davis VP2

WVIEW

Pc-WDS5